createdAt,value
2016-05-23T00:00:29.997Z,0
2016-05-23T00:01:30.140Z,0
2016-05-23T00:02:30.018Z,0
2016-05-23T00:03:29.989Z,0
2016-05-23T00:04:29.836Z,0
2016-05-23T00:05:29.995Z,0
2016-05-23T00:06:30.138Z,0
2016-05-23T00:07:30.000Z,0
2016-05-23T00:08:30.003Z,0
2016-05-23T00:09:30.147Z,0
2016-05-23T00:10:30.008Z,0
2016-05-23T00:11:29.855Z,0
2016-05-23T00:12:29.998Z,0
2016-05-23T00:13:30.157Z,0
2016-05-23T00:14:29.893Z,0
2016-05-23T00:15:30.162Z,0
2016-05-23T00:16:30.009Z,0
2016-05-23T00:17:30.168Z,0
2016-05-23T00:18:30.170Z,0
2016-05-23T00:19:30.174Z,0
2016-05-23T00:20:30.176Z,0
2016-05-23T00:21:30.022Z,0
2016-05-23T00:22:30.165Z,0
2016-05-23T00:23:30.013Z,0
2016-05-23T00:24:30.187Z,0
2016-05-23T00:25:30.017Z,0
2016-05-23T00:26:30.177Z,0
2016-05-23T00:27:30.209Z,0
2016-05-23T00:28:30.182Z,0
2016-05-23T00:29:30.340Z,0
2016-05-23T00:30:30.171Z,0
2016-05-23T00:31:30.049Z,0
2016-05-23T00:32:30.192Z,0
2016-05-23T00:33:30.195Z,0
2016-05-23T00:34:30.026Z,0
2016-05-23T00:35:30.200Z,0
2016-05-23T00:36:30.187Z,0
2016-05-23T00:37:30.190Z,0
2016-05-23T00:38:30.053Z,0
2016-05-23T00:39:30.195Z,0
2016-05-23T00:40:30.042Z,0
2016-05-23T00:41:30.185Z,0
2016-05-23T00:42:30.047Z,0
2016-05-23T00:43:30.191Z,0
2016-05-23T00:44:30.538Z,0
2016-05-23T00:45:30.227Z,0
2016-05-23T00:46:30.199Z,0
2016-05-23T00:47:30.202Z,0
2016-05-23T00:48:30.063Z,0
2016-05-23T00:49:30.207Z,0
2016-05-23T00:50:30.210Z,0
2016-05-23T00:51:30.213Z,0
2016-05-23T00:52:30.199Z,0
2016-05-23T00:53:30.217Z,0
2016-05-23T00:54:30.205Z,0
2016-05-23T00:55:30.051Z,0
2016-05-23T00:56:30.240Z,0
2016-05-23T00:57:30.213Z,0
2016-05-23T00:58:30.231Z,0
2016-05-23T00:59:30.781Z,0
2016-05-23T01:00:30.064Z,0
2016-05-23T01:01:30.224Z,0
2016-05-23T01:02:30.070Z,0
2016-05-23T01:03:30.228Z,0
2016-05-23T01:04:30.217Z,0
2016-05-23T01:05:30.219Z,0
2016-05-23T01:06:30.253Z,0
2016-05-23T01:07:30.224Z,0
2016-05-23T01:08:30.227Z,0
2016-05-23T01:09:30.230Z,0
2016-05-23T01:10:30.232Z,0
2016-05-23T01:11:30.235Z,0
2016-05-23T01:12:30.081Z,0
2016-05-23T01:13:30.225Z,0
2016-05-23T01:14:30.258Z,0
2016-05-23T01:15:30.246Z,0
2016-05-23T01:16:30.233Z,0
2016-05-23T01:17:30.235Z,0
2016-05-23T01:18:30.238Z,0
2016-05-23T01:19:30.085Z,0
2016-05-23T01:20:30.244Z,0
2016-05-23T01:21:30.246Z,0
2016-05-23T01:22:30.093Z,0
2016-05-23T01:23:29.938Z,0
2016-05-23T01:24:30.098Z,0
2016-05-23T01:25:30.257Z,0
2016-05-23T01:26:30.243Z,0
2016-05-23T01:27:30.247Z,0
2016-05-23T01:28:30.249Z,0
2016-05-23T01:29:30.486Z,0
2016-05-23T01:30:30.114Z,0
2016-05-23T01:31:30.273Z,0
2016-05-23T01:32:30.260Z,0
2016-05-23T01:33:30.262Z,0
2016-05-23T01:34:30.265Z,0
2016-05-23T01:35:30.268Z,0
2016-05-23T01:36:30.270Z,0
2016-05-23T01:37:30.101Z,0
2016-05-23T01:38:30.260Z,0
2016-05-23T01:39:30.248Z,0
2016-05-23T01:40:30.266Z,0
2016-05-23T01:41:30.269Z,0
2016-05-23T01:42:30.272Z,0
2016-05-23T01:43:30.258Z,0
2016-05-23T01:44:30.917Z,0
2016-05-23T01:45:30.123Z,0
2016-05-23T01:46:30.297Z,0
2016-05-23T01:47:30.113Z,0
2016-05-23T01:48:30.272Z,0
2016-05-23T01:49:30.274Z,0
2016-05-23T01:50:30.277Z,0
2016-05-23T01:51:30.280Z,0
2016-05-23T01:52:30.282Z,0
2016-05-23T01:53:30.285Z,0
2016-05-23T01:54:30.116Z,0
2016-05-23T01:55:30.150Z,0
2016-05-23T01:56:30.293Z,0
2016-05-23T01:57:29.984Z,0
2016-05-23T01:58:30.299Z,0
2016-05-23T01:59:30.504Z,0
2016-05-23T02:00:29.663Z,0
2016-05-23T02:01:30.290Z,0
2016-05-23T02:02:30.154Z,0
2016-05-23T02:03:30.296Z,0
2016-05-23T02:04:30.314Z,0
2016-05-23T02:05:30.302Z,0
2016-05-23T02:06:29.976Z,0
2016-05-23T02:07:30.150Z,0
2016-05-23T02:08:30.295Z,0
2016-05-23T02:09:30.298Z,0
2016-05-23T02:10:30.300Z,0
2016-05-23T02:11:30.131Z,0
2016-05-23T02:12:30.149Z,0
2016-05-23T02:13:30.135Z,0
2016-05-23T02:14:30.405Z,0
2016-05-23T02:15:30.313Z,0
2016-05-23T02:16:30.316Z,0
2016-05-23T02:17:30.302Z,0
2016-05-23T02:18:30.305Z,0
2016-05-23T02:19:30.168Z,0
2016-05-23T02:20:30.296Z,0
2016-05-23T02:21:30.330Z,0
2016-05-23T02:22:30.316Z,0
2016-05-23T02:23:30.007Z,0
2016-05-23T02:24:30.338Z,0
2016-05-23T02:25:29.855Z,0
2016-05-23T02:26:30.312Z,0
2016-05-23T02:27:30.158Z,0
2016-05-23T02:28:30.160Z,0
2016-05-23T02:29:30.320Z,0
2016-05-23T02:30:30.307Z,0
2016-05-23T02:31:30.325Z,0
2016-05-23T02:32:30.172Z,0
2016-05-23T02:33:30.174Z,0
2016-05-23T02:34:30.177Z,0
2016-05-23T02:35:30.336Z,0
2016-05-23T02:36:30.322Z,0
2016-05-23T02:37:30.326Z,0
2016-05-23T02:38:30.344Z,0
2016-05-23T02:39:30.331Z,0
2016-05-23T02:40:30.333Z,0
2016-05-23T02:41:30.337Z,0
2016-05-23T02:42:30.167Z,0
2016-05-23T02:43:30.358Z,0
2016-05-23T02:44:30.625Z,0
2016-05-23T02:45:30.347Z,0
2016-05-23T02:46:30.350Z,0
2016-05-23T02:47:30.352Z,0
2016-05-23T02:48:30.183Z,0
2016-05-23T02:49:30.342Z,0
2016-05-23T02:50:30.330Z,0
2016-05-23T02:51:30.175Z,0
2016-05-23T02:52:30.194Z,0
2016-05-23T02:53:30.196Z,0
2016-05-23T02:54:30.340Z,0
2016-05-23T02:55:30.358Z,0
2016-05-23T02:56:30.189Z,0
2016-05-23T02:57:30.349Z,0
2016-05-23T02:58:30.194Z,0
2016-05-23T02:59:30.681Z,0
2016-05-23T03:00:30.356Z,0
2016-05-23T03:01:30.343Z,0
2016-05-23T03:02:30.205Z,0
2016-05-23T03:03:30.207Z,0
2016-05-23T03:04:30.351Z,0
2016-05-23T03:05:30.353Z,0
2016-05-23T03:06:30.356Z,0
2016-05-23T03:07:30.203Z,0
2016-05-23T03:08:30.206Z,0
2016-05-23T03:09:30.208Z,0
2016-05-23T03:10:30.351Z,0
2016-05-23T03:11:30.354Z,0
2016-05-23T03:12:30.357Z,0
2016-05-23T03:13:30.203Z,0
2016-05-23T03:14:30.081Z,0
2016-05-23T03:15:30.365Z,0
2016-05-23T03:16:30.368Z,0
2016-05-23T03:17:30.214Z,0
2016-05-23T03:18:30.372Z,0
2016-05-23T03:19:30.376Z,0
2016-05-23T03:20:30.378Z,0
2016-05-23T03:21:30.069Z,0
2016-05-23T03:22:30.213Z,0
2016-05-23T03:23:30.371Z,0
2016-05-23T03:24:30.218Z,0
2016-05-23T03:25:30.377Z,0
2016-05-23T03:26:30.364Z,0
2016-05-23T03:27:30.241Z,0
2016-05-23T03:28:30.384Z,0
2016-05-23T03:29:30.512Z,0
2016-05-23T03:30:30.374Z,0
2016-05-23T03:31:30.237Z,0
2016-05-23T03:32:30.223Z,0
2016-05-23T03:33:30.382Z,0
2016-05-23T03:34:30.384Z,0
2016-05-23T03:35:30.076Z,0
2016-05-23T03:36:30.406Z,0
2016-05-23T03:37:30.409Z,0
2016-05-23T03:38:30.395Z,0
2016-05-23T03:39:30.398Z,0
2016-05-23T03:40:30.401Z,0
2016-05-23T03:41:30.404Z,0
2016-05-23T03:42:30.266Z,0
2016-05-23T03:43:30.394Z,0
2016-05-23T03:44:30.272Z,0
2016-05-23T03:45:30.242Z,0
2016-05-23T03:46:30.417Z,0
2016-05-23T03:47:30.388Z,0
2016-05-23T03:48:30.392Z,0
2016-05-23T03:49:30.410Z,0
2016-05-23T03:50:30.397Z,0
2016-05-23T03:51:30.400Z,0
2016-05-23T03:52:30.402Z,0
2016-05-23T03:53:30.249Z,0
2016-05-23T03:54:30.408Z,0
2016-05-23T03:55:30.427Z,0
2016-05-23T03:56:30.413Z,0
2016-05-23T03:57:30.416Z,0
2016-05-23T03:58:30.402Z,0
2016-05-23T03:59:30.702Z,0
2016-05-23T04:00:30.268Z,0
2016-05-23T04:01:30.254Z,0
2016-05-23T04:02:30.413Z,0
2016-05-23T04:03:30.432Z,0
2016-05-23T04:04:30.263Z,0
2016-05-23T04:05:30.406Z,0
2016-05-23T04:06:30.268Z,0
2016-05-23T04:07:30.255Z,0
2016-05-23T04:08:30.415Z,0
2016-05-23T04:09:30.417Z,0
2016-05-23T04:10:30.263Z,0
2016-05-23T04:11:30.265Z,0
2016-05-23T04:12:30.112Z,0
2016-05-23T04:13:29.959Z,0
2016-05-23T04:14:30.728Z,0
2016-05-23T04:15:30.261Z,0
2016-05-23T04:16:30.436Z,0
2016-05-23T04:17:30.407Z,0
2016-05-23T04:18:30.441Z,0
2016-05-23T04:19:30.428Z,0
2016-05-23T04:20:30.431Z,0
2016-05-23T04:21:30.433Z,0
2016-05-23T04:22:30.436Z,0
2016-05-23T04:23:30.455Z,0
2016-05-23T04:24:30.425Z,0
2016-05-23T04:25:30.428Z,0
2016-05-23T04:26:30.447Z,0
2016-05-23T04:27:30.434Z,0
2016-05-23T04:28:30.436Z,0
2016-05-23T04:29:31.174Z,0
2016-05-23T04:30:30.457Z,0
2016-05-23T04:31:30.444Z,0
2016-05-23T04:32:30.446Z,0
2016-05-23T04:33:30.449Z,0
2016-05-23T04:34:30.437Z,0
2016-05-23T04:35:30.440Z,0
2016-05-23T04:36:30.443Z,0
2016-05-23T04:37:30.445Z,0
2016-05-23T04:38:30.432Z,0
2016-05-23T04:39:30.451Z,0
2016-05-23T04:40:30.453Z,0
2016-05-23T04:41:30.456Z,0
2016-05-23T04:42:30.474Z,0
2016-05-23T04:43:30.446Z,0
2016-05-23T04:44:31.167Z,0
2016-05-23T04:45:30.467Z,0
2016-05-23T04:46:30.454Z,0
2016-05-23T04:47:30.144Z,0
2016-05-23T04:48:30.459Z,0
2016-05-23T04:49:30.447Z,0
2016-05-23T04:50:30.309Z,0
2016-05-23T04:51:30.468Z,0
2016-05-23T04:52:30.469Z,0
2016-05-23T04:53:30.301Z,0
2016-05-23T04:54:30.319Z,0
2016-05-23T04:55:30.463Z,0
2016-05-23T04:56:30.466Z,0
2016-05-23T04:57:30.469Z,0
2016-05-23T04:58:30.471Z,0
2016-05-23T04:59:30.738Z,0
2016-05-23T05:00:30.445Z,0
2016-05-23T05:01:30.463Z,0
2016-05-23T05:02:30.310Z,0
2016-05-23T05:03:30.327Z,0
2016-05-23T05:04:30.471Z,0
2016-05-23T05:05:30.458Z,5
2016-05-23T05:06:30.461Z,5
2016-05-23T05:07:30.323Z,5
2016-05-23T05:08:30.466Z,5
2016-05-23T05:09:30.469Z,5
2016-05-23T05:10:30.331Z,5
2016-05-23T05:11:30.474Z,5
2016-05-23T05:12:30.462Z,5
2016-05-23T05:13:30.323Z,0
2016-05-23T05:14:30.560Z,0
2016-05-23T05:15:30.328Z,0
2016-05-23T05:16:30.488Z,0
2016-05-23T05:17:30.475Z,0
2016-05-23T05:18:30.478Z,0
2016-05-23T05:19:30.480Z,0
2016-05-23T05:20:30.468Z,0
2016-05-23T05:21:30.486Z,0
2016-05-23T05:22:30.316Z,0
2016-05-23T05:23:30.164Z,0
2016-05-23T05:24:30.322Z,5
2016-05-23T05:25:30.324Z,5
2016-05-23T05:26:30.484Z,5
2016-05-23T05:27:30.470Z,5
2016-05-23T05:28:30.333Z,5
2016-05-23T05:29:31.101Z,5
2016-05-23T05:30:30.338Z,10
2016-05-23T05:31:30.481Z,10
2016-05-23T05:32:30.171Z,10
2016-05-23T05:33:30.330Z,10
2016-05-23T05:34:30.489Z,10
2016-05-23T05:35:30.164Z,10
2016-05-23T05:36:30.510Z,10
2016-05-23T05:37:30.482Z,10
2016-05-23T05:38:30.485Z,10
2016-05-23T05:39:30.503Z,10
2016-05-23T05:40:30.349Z,10
2016-05-23T05:41:30.493Z,10
2016-05-23T05:42:30.496Z,15
2016-05-23T05:43:30.498Z,15
2016-05-23T05:44:30.595Z,15
2016-05-23T05:45:30.487Z,15
2016-05-23T05:46:30.490Z,15
2016-05-23T05:47:30.493Z,10
2016-05-23T05:48:30.495Z,15
2016-05-23T05:49:30.498Z,15
2016-05-23T05:50:30.501Z,15
2016-05-23T05:51:30.489Z,15
2016-05-23T05:52:30.350Z,15
2016-05-23T05:53:30.494Z,15
2016-05-23T05:54:30.497Z,20
2016-05-23T05:55:30.514Z,20
2016-05-23T05:56:30.502Z,15
2016-05-23T05:57:30.348Z,15
2016-05-23T05:58:30.539Z,15
2016-05-23T05:59:30.369Z,15
2016-05-23T06:00:30.497Z,15
2016-05-23T06:01:31.000Z,15
2016-05-23T06:02:30.503Z,15
2016-05-23T06:03:30.521Z,20
2016-05-23T06:04:30.036Z,20
2016-05-23T06:05:30.511Z,20
2016-05-23T06:06:30.904Z,20
2016-05-23T06:07:30.515Z,15
2016-05-23T06:08:30.518Z,20
2016-05-23T06:09:30.521Z,20
2016-05-23T06:10:30.352Z,20
2016-05-23T06:11:30.510Z,20
2016-05-23T06:12:30.513Z,20
2016-05-23T06:13:30.531Z,20
2016-05-23T06:14:30.738Z,20
2016-05-23T06:15:30.521Z,20
2016-05-23T06:16:30.524Z,25
2016-05-23T06:17:30.352Z,20
2016-05-23T06:18:30.355Z,20
2016-05-23T06:19:30.515Z,20
2016-05-23T06:20:30.517Z,20
2016-05-23T06:21:31.148Z,15
2016-05-23T06:22:30.538Z,15
2016-05-23T06:23:30.384Z,20
2016-05-23T06:24:30.542Z,15
2016-05-23T06:25:30.467Z,15
2016-05-23T06:26:33.254Z,15
2016-05-23T06:27:30.520Z,15
2016-05-23T06:28:30.522Z,15
2016-05-23T06:29:30.541Z,15
2016-05-23T06:30:30.372Z,20
2016-05-23T06:31:32.533Z,25
2016-05-23T06:32:30.517Z,25
2016-05-23T06:33:30.520Z,25
2016-05-23T06:34:30.523Z,30
2016-05-23T06:35:30.370Z,30
2016-05-23T06:36:30.528Z,35
2016-05-23T06:37:30.563Z,40
2016-05-23T06:38:30.534Z,40
2016-05-23T06:39:30.522Z,35
2016-05-23T06:40:31.699Z,40
2016-05-23T06:41:30.527Z,40
2016-05-23T06:42:30.544Z,40
2016-05-23T06:43:30.360Z,40
2016-05-23T06:45:32.134Z,40
2016-05-23T06:46:30.540Z,40
2016-05-23T06:47:30.527Z,40
2016-05-23T06:48:30.546Z,40
2016-05-23T06:49:30.558Z,35
2016-05-23T06:50:30.446Z,35
2016-05-23T06:51:33.205Z,30
2016-05-23T06:52:30.642Z,30
2016-05-23T06:53:30.514Z,30
2016-05-23T06:54:30.681Z,30
2016-05-23T06:55:30.693Z,35
2016-05-23T06:56:30.971Z,35
2016-05-23T06:57:30.546Z,40
2016-05-23T06:58:30.714Z,40
2016-05-23T06:59:31.126Z,35
2016-05-23T07:00:30.600Z,35
2016-05-23T07:01:30.732Z,40
2016-05-23T07:02:30.752Z,40
2016-05-23T07:03:30.743Z,35
2016-05-23T07:04:30.731Z,40
2016-05-23T07:05:32.957Z,35
2016-05-23T07:06:30.597Z,35
2016-05-23T07:07:30.586Z,35
2016-05-23T07:08:30.590Z,35
2016-05-23T07:09:30.765Z,35
2016-05-23T07:10:31.299Z,30
2016-05-23T07:11:32.553Z,25
2016-05-23T07:12:30.774Z,30
2016-05-23T07:13:30.605Z,30
2016-05-23T07:14:30.765Z,30
2016-05-23T07:15:30.612Z,35
2016-05-23T07:16:33.930Z,40
2016-05-23T07:17:30.836Z,40
2016-05-23T07:18:30.605Z,40
2016-05-23T07:19:30.591Z,45
2016-05-23T07:20:30.766Z,40
2016-05-23T07:21:32.785Z,35
2016-05-23T07:22:30.772Z,40
2016-05-23T07:23:30.760Z,35
2016-05-23T07:24:30.590Z,30
2016-05-23T07:25:30.608Z,25
2016-05-23T07:26:32.704Z,30
2016-05-23T07:27:30.598Z,30
2016-05-23T07:28:30.615Z,30
2016-05-23T07:29:30.962Z,35
2016-05-23T07:30:30.762Z,35
2016-05-23T07:31:31.921Z,35
2016-05-23T07:32:30.767Z,30
2016-05-23T07:33:30.770Z,30
2016-05-23T07:34:30.756Z,35
2016-05-23T07:35:30.448Z,40
2016-05-23T07:36:30.622Z,40
2016-05-23T07:37:30.609Z,40
2016-05-23T07:38:30.753Z,40
2016-05-23T07:39:30.615Z,40
2016-05-23T07:40:30.617Z,40
2016-05-23T07:41:30.605Z,40
2016-05-23T07:42:30.794Z,45
2016-05-23T07:43:30.766Z,45
2016-05-23T07:44:30.940Z,45
2016-05-23T07:45:30.600Z,45
2016-05-23T07:46:30.618Z,45
2016-05-23T07:47:30.776Z,45
2016-05-23T07:48:30.779Z,45
2016-05-23T07:49:30.610Z,50
2016-05-23T07:50:30.768Z,50
2016-05-23T07:51:30.991Z,50
2016-05-23T07:52:30.774Z,50
2016-05-23T07:53:30.793Z,45
2016-05-23T07:54:30.623Z,50
2016-05-23T07:55:30.610Z,50
2016-05-23T07:56:30.801Z,55
2016-05-23T07:57:30.788Z,55
2016-05-23T07:58:30.634Z,60
2016-05-23T07:59:31.653Z,60
2016-05-23T08:00:30.639Z,65
2016-05-23T08:01:32.799Z,65
2016-05-23T08:02:30.770Z,65
2016-05-23T08:03:30.789Z,65
2016-05-23T08:04:30.775Z,70
2016-05-23T08:05:30.465Z,70
2016-05-23T08:06:30.625Z,65
2016-05-23T08:07:30.643Z,75
2016-05-23T08:08:30.786Z,75
2016-05-23T08:09:30.633Z,70
2016-05-23T08:10:30.808Z,75
2016-05-23T08:11:30.639Z,75
2016-05-23T08:12:30.781Z,85
2016-05-23T08:13:30.628Z,90
2016-05-23T08:14:30.522Z,95
2016-05-23T08:15:30.789Z,95
2016-05-23T08:16:33.291Z,95
2016-05-23T08:17:30.779Z,95
2016-05-23T08:18:30.813Z,90
2016-05-23T08:19:30.800Z,85
2016-05-23T08:20:30.819Z,85
2016-05-23T08:21:30.805Z,80
2016-05-23T08:22:30.808Z,85
2016-05-23T08:23:30.810Z,75
2016-05-23T08:24:30.798Z,75
2016-05-23T08:25:30.659Z,75
2016-05-23T08:26:30.522Z,65
2016-05-23T08:27:30.837Z,65
2016-05-23T08:28:30.652Z,70
2016-05-23T08:29:30.701Z,75
2016-05-23T08:30:30.798Z,75
2016-05-23T08:31:30.660Z,80
2016-05-23T08:32:30.820Z,85
2016-05-23T08:33:30.822Z,85
2016-05-23T08:34:30.653Z,90
2016-05-23T08:35:30.812Z,85
2016-05-23T08:36:31.565Z,90
2016-05-23T08:37:30.661Z,90
2016-05-23T08:38:30.664Z,95
2016-05-23T08:39:30.511Z,95
2016-05-23T08:40:30.653Z,95
2016-05-23T08:41:31.109Z,95
2016-05-23T08:42:30.674Z,100
2016-05-23T08:43:30.817Z,105
2016-05-23T08:44:31.242Z,100
2016-05-23T08:45:30.667Z,95
2016-05-23T08:46:30.514Z,95
2016-05-23T08:47:30.828Z,80
2016-05-23T08:48:30.831Z,95
2016-05-23T08:49:30.819Z,95
2016-05-23T08:50:30.821Z,95
2016-05-23T08:51:30.667Z,80
2016-05-23T08:52:30.826Z,90
2016-05-23T08:53:30.844Z,100
2016-05-23T08:54:30.832Z,105
2016-05-23T08:55:30.819Z,115
2016-05-23T08:56:30.666Z,110
2016-05-23T08:57:30.840Z,125
2016-05-23T08:58:30.827Z,135
2016-05-23T08:59:31.079Z,140
2016-05-23T09:00:30.848Z,120
2016-05-23T09:01:30.679Z,135
2016-05-23T09:02:30.853Z,135
2016-05-23T09:03:30.684Z,145
2016-05-23T09:04:30.828Z,145
2016-05-23T09:05:30.846Z,135
2016-05-23T09:06:30.848Z,140
2016-05-23T09:07:30.695Z,155
2016-05-23T09:08:30.682Z,170
2016-05-23T09:09:30.872Z,140
2016-05-23T09:10:30.844Z,115
2016-05-23T09:11:30.705Z,125
2016-05-23T09:12:30.849Z,125
2016-05-23T09:13:30.539Z,100
2016-05-23T09:14:30.870Z,110
2016-05-23T09:15:30.858Z,130
2016-05-23T09:16:30.547Z,115
2016-05-23T09:17:30.706Z,100
2016-05-23T09:18:30.881Z,100
2016-05-23T09:19:30.869Z,80
2016-05-23T09:20:30.871Z,80
2016-05-23T09:21:30.858Z,80
2016-05-23T09:22:30.704Z,100
2016-05-23T09:23:30.722Z,80
2016-05-23T09:24:30.865Z,80
2016-05-23T09:25:30.884Z,85
2016-05-23T09:26:30.871Z,70
2016-05-23T09:27:32.780Z,80
2016-05-23T09:28:30.860Z,80
2016-05-23T09:29:31.332Z,80
2016-05-23T09:30:30.726Z,85
2016-05-23T09:31:30.868Z,85
2016-05-23T09:32:31.715Z,70
2016-05-23T09:33:30.874Z,65
2016-05-23T09:34:30.736Z,70
2016-05-23T09:35:30.879Z,65
2016-05-23T09:36:30.585Z,70
2016-05-23T09:37:30.884Z,65
2016-05-23T09:38:30.747Z,75
2016-05-23T09:39:30.890Z,75
2016-05-23T09:40:30.892Z,70
2016-05-23T09:41:30.880Z,65
2016-05-23T09:42:31.070Z,60
2016-05-23T09:43:30.886Z,65
2016-05-23T09:44:31.295Z,60
2016-05-23T09:45:30.734Z,60
2016-05-23T09:46:30.894Z,60
2016-05-23T09:47:33.396Z,55
2016-05-23T09:48:30.743Z,60
2016-05-23T09:49:30.745Z,60
2016-05-23T09:50:30.935Z,65
2016-05-23T09:51:30.750Z,65
2016-05-23T09:52:32.003Z,75
2016-05-23T09:53:30.897Z,75
2016-05-23T09:54:30.899Z,80
2016-05-23T09:55:30.902Z,85
2016-05-23T09:56:30.749Z,85
2016-05-23T09:57:31.782Z,75
2016-05-23T09:58:30.910Z,85
2016-05-23T09:59:32.413Z,85
2016-05-23T10:00:30.760Z,80
2016-05-23T10:01:30.918Z,80
2016-05-23T10:02:32.859Z,75
2016-05-23T10:03:30.908Z,75
2016-05-23T10:04:30.911Z,80
2016-05-23T10:05:30.788Z,85
2016-05-23T10:06:30.948Z,90
2016-05-23T10:07:31.606Z,95
2016-05-23T10:08:30.921Z,100
2016-05-23T10:09:30.767Z,100
2016-05-23T10:10:30.755Z,105
2016-05-23T10:11:30.773Z,100
2016-05-23T10:12:30.792Z,90
2016-05-23T10:13:30.934Z,90
2016-05-23T10:14:30.828Z,90
2016-05-23T10:15:30.940Z,90
2016-05-23T10:16:30.928Z,75
2016-05-23T10:17:30.930Z,70
2016-05-23T10:18:30.932Z,80
2016-05-23T10:19:30.951Z,70
2016-05-23T10:20:30.641Z,70
2016-05-23T10:21:30.800Z,70
2016-05-23T10:22:30.943Z,85
2016-05-23T10:23:30.977Z,80
2016-05-23T10:24:30.964Z,80
2016-05-23T10:25:30.952Z,85
2016-05-23T10:26:30.798Z,85
2016-05-23T10:27:30.988Z,90
2016-05-23T10:28:30.960Z,75
2016-05-23T10:29:32.400Z,90
2016-05-23T10:30:30.980Z,85
2016-05-23T10:31:30.952Z,80
2016-05-23T10:32:30.955Z,85
2016-05-23T10:33:30.958Z,85
2016-05-23T10:34:30.975Z,90
2016-05-23T10:35:30.962Z,80
2016-05-23T10:36:30.965Z,85
2016-05-23T10:37:30.656Z,80
2016-05-23T10:38:30.970Z,80
2016-05-23T10:39:32.348Z,75
2016-05-23T10:40:30.820Z,85
2016-05-23T10:41:30.979Z,80
2016-05-23T10:42:30.981Z,80
2016-05-23T10:43:30.984Z,80
2016-05-23T10:44:32.611Z,65
2016-05-23T10:45:30.833Z,80
2016-05-23T10:46:30.977Z,85
2016-05-23T10:47:30.980Z,90
2016-05-23T10:48:30.810Z,90
2016-05-23T10:49:30.813Z,80
2016-05-23T10:50:30.988Z,60
2016-05-23T10:51:31.178Z,60
2016-05-23T10:52:30.821Z,60
2016-05-23T10:53:30.996Z,70
2016-05-23T10:54:30.842Z,70
2016-05-23T10:55:31.002Z,75
2016-05-23T10:56:31.004Z,75
2016-05-23T10:57:30.990Z,70
2016-05-23T10:58:30.868Z,65
2016-05-23T10:59:30.871Z,65
2016-05-23T11:00:30.983Z,65
2016-05-23T11:01:31.001Z,60
2016-05-23T11:02:30.691Z,55
2016-05-23T11:03:31.007Z,55
2016-05-23T11:04:30.994Z,55
2016-05-23T11:05:30.996Z,55
2016-05-23T11:06:30.999Z,50
2016-05-23T11:07:30.830Z,55
2016-05-23T11:08:31.005Z,50
2016-05-23T11:09:30.851Z,45
2016-05-23T11:10:31.010Z,50
2016-05-23T11:11:30.997Z,45
2016-05-23T11:12:31.000Z,45
2016-05-23T11:13:31.003Z,55
2016-05-23T11:14:32.333Z,50
2016-05-23T11:15:30.695Z,45
2016-05-23T11:16:31.011Z,45
2016-05-23T11:17:30.873Z,45
2016-05-23T11:18:31.017Z,40
2016-05-23T11:19:30.862Z,40
2016-05-23T11:20:30.881Z,45
2016-05-23T11:21:30.883Z,45
2016-05-23T11:22:30.714Z,45
2016-05-23T11:23:31.014Z,50
2016-05-23T11:24:31.016Z,55
2016-05-23T11:25:31.035Z,55
2016-05-23T11:26:31.038Z,55
2016-05-23T11:27:30.869Z,50
2016-05-23T11:28:31.027Z,55
2016-05-23T11:29:31.405Z,55
2016-05-23T11:30:30.877Z,65
2016-05-23T11:31:31.019Z,75
2016-05-23T11:32:31.038Z,85
2016-05-23T11:33:30.885Z,85
2016-05-23T11:34:31.028Z,85
2016-05-23T11:35:30.874Z,75
2016-05-23T11:36:31.033Z,80
2016-05-23T11:37:31.036Z,85
2016-05-23T11:38:30.726Z,105
2016-05-23T11:39:31.041Z,110
2016-05-23T11:40:31.043Z,105
2016-05-23T11:41:31.062Z,90
2016-05-23T11:42:31.049Z,90
2016-05-23T11:43:31.051Z,100
2016-05-23T11:44:30.820Z,100
2016-05-23T11:45:31.057Z,105
2016-05-23T11:46:31.044Z,125
2016-05-23T11:47:30.906Z,130
2016-05-23T11:48:31.050Z,110
2016-05-23T11:49:31.067Z,115
2016-05-23T11:50:30.914Z,115
2016-05-23T11:51:30.917Z,110
2016-05-23T11:52:31.061Z,120
2016-05-23T11:53:30.892Z,120
2016-05-23T11:54:30.910Z,105
2016-05-23T11:55:30.897Z,100
2016-05-23T11:56:30.899Z,110
2016-05-23T11:57:30.949Z,115
2016-05-23T11:58:31.092Z,100
2016-05-23T11:59:31.658Z,115
2016-05-23T12:00:31.052Z,140
2016-05-23T12:01:30.896Z,115
2016-05-23T12:02:30.931Z,115
2016-05-23T12:03:31.059Z,110
2016-05-23T12:04:30.921Z,140
2016-05-23T12:05:31.096Z,135
2016-05-23T12:06:30.927Z,135
2016-05-23T12:07:31.070Z,150
2016-05-23T12:08:31.073Z,140
2016-05-23T12:09:31.076Z,135
2016-05-23T12:10:30.922Z,160
2016-05-23T12:11:31.081Z,205
2016-05-23T12:12:31.083Z,180
2016-05-23T12:13:31.086Z,165
2016-05-23T12:14:31.120Z,145
2016-05-23T12:15:31.076Z,125
2016-05-23T12:16:31.078Z,130
2016-05-23T12:17:31.081Z,110
2016-05-23T12:18:31.083Z,90
2016-05-23T12:19:31.102Z,105
2016-05-23T12:20:30.933Z,105
2016-05-23T12:21:31.108Z,85
2016-05-23T12:22:30.939Z,105
2016-05-23T12:23:31.113Z,120
2016-05-23T12:24:31.116Z,100
2016-05-23T12:25:30.961Z,85
2016-05-23T12:26:31.121Z,65
2016-05-23T12:27:31.108Z,60
2016-05-23T12:28:31.111Z,75
2016-05-23T12:29:31.550Z,80
2016-05-23T12:30:31.116Z,80
2016-05-23T12:31:30.791Z,80
2016-05-23T12:32:31.121Z,80
2016-05-23T12:33:31.124Z,85
2016-05-23T12:34:31.126Z,85
2016-05-23T12:35:31.113Z,85
2016-05-23T12:36:31.038Z,85
2016-05-23T12:37:31.119Z,85
2016-05-23T12:38:31.216Z,95
2016-05-23T12:39:30.968Z,95
2016-05-23T12:40:30.970Z,95
2016-05-23T12:41:30.973Z,85
2016-05-23T12:42:31.132Z,85
2016-05-23T12:43:30.995Z,65
2016-05-23T12:44:31.123Z,70
2016-05-23T12:45:31.140Z,70
2016-05-23T12:46:31.268Z,70
2016-05-23T12:47:31.131Z,60
2016-05-23T12:48:31.149Z,55
2016-05-23T12:49:31.433Z,60
2016-05-23T12:50:31.153Z,60
2016-05-23T12:51:31.157Z,65
2016-05-23T12:52:31.159Z,55
2016-05-23T12:53:33.506Z,55
2016-05-23T12:54:31.150Z,55
2016-05-23T12:55:31.136Z,50
2016-05-23T12:56:31.169Z,50
2016-05-23T12:57:31.141Z,45
2016-05-23T12:58:31.144Z,40
2016-05-23T12:59:31.163Z,45
2016-05-23T13:00:31.149Z,50
2016-05-23T13:01:30.996Z,45
2016-05-23T13:02:30.999Z,40
2016-05-23T13:03:31.002Z,40
2016-05-23T13:04:31.004Z,50
2016-05-23T13:05:31.147Z,45
2016-05-23T13:06:31.010Z,45
2016-05-23T13:07:31.152Z,45
2016-05-23T13:08:31.171Z,40
2016-05-23T13:09:31.205Z,35
2016-05-23T13:10:31.161Z,40
2016-05-23T13:11:31.179Z,45
2016-05-23T13:12:31.026Z,50
2016-05-23T13:13:31.184Z,50
2016-05-23T13:14:31.015Z,50
2016-05-23T13:15:31.033Z,50
2016-05-23T13:16:31.037Z,55
2016-05-23T13:17:31.023Z,50
2016-05-23T13:18:31.182Z,50
2016-05-23T13:19:31.248Z,50
2016-05-23T13:20:31.031Z,60
2016-05-23T13:21:31.190Z,60
2016-05-23T13:22:31.053Z,55
2016-05-23T13:23:31.180Z,60
2016-05-23T13:24:31.183Z,60
2016-05-23T13:25:31.233Z,60
2016-05-23T13:26:31.204Z,55
2016-05-23T13:27:31.175Z,70
2016-05-23T13:28:31.194Z,65
2016-05-23T13:29:31.416Z,60
2016-05-23T13:30:31.199Z,60
2016-05-23T13:31:31.046Z,70
2016-05-23T13:32:31.188Z,75
2016-05-23T13:33:31.192Z,65
2016-05-23T13:34:31.054Z,70
2016-05-23T13:35:31.212Z,65
2016-05-23T13:36:31.200Z,80
2016-05-23T13:37:31.218Z,75
2016-05-23T13:38:31.048Z,80
2016-05-23T13:39:31.193Z,60
2016-05-23T13:40:31.210Z,70
2016-05-23T13:41:31.213Z,55
2016-05-23T13:42:31.201Z,65
2016-05-23T13:43:31.204Z,65
2016-05-23T13:44:31.955Z,75
2016-05-23T13:45:30.974Z,80
2016-05-23T13:46:31.070Z,75
2016-05-23T13:47:31.057Z,75
2016-05-23T13:48:31.059Z,75
2016-05-23T13:49:31.234Z,75
2016-05-23T13:50:31.237Z,75
2016-05-23T13:51:31.225Z,75
2016-05-23T13:52:31.071Z,60
2016-05-23T13:53:31.074Z,60
2016-05-23T13:54:31.060Z,65
2016-05-23T13:55:31.078Z,65
2016-05-23T13:56:31.128Z,60
2016-05-23T13:57:31.053Z,65
2016-05-23T13:58:31.227Z,75
2016-05-23T13:59:31.527Z,70
2016-05-23T14:00:31.467Z,85
2016-05-23T14:01:31.235Z,80
2016-05-23T14:02:31.238Z,100
2016-05-23T14:03:34.257Z,120
2016-05-23T14:04:31.088Z,125
2016-05-23T14:05:31.090Z,125
2016-05-23T14:06:30.921Z,120
2016-05-23T14:07:31.236Z,125
2016-05-23T14:08:32.660Z,110
2016-05-23T14:09:30.929Z,120
2016-05-23T14:10:31.244Z,120
2016-05-23T14:11:31.074Z,115
2016-05-23T14:12:31.110Z,115
2016-05-23T14:13:31.112Z,115
2016-05-23T14:14:31.629Z,115
2016-05-23T14:15:31.117Z,120
2016-05-23T14:16:31.260Z,125
2016-05-23T14:17:30.951Z,115
2016-05-23T14:18:31.765Z,100
2016-05-23T14:19:32.159Z,105
2016-05-23T14:20:31.115Z,100
2016-05-23T14:21:31.242Z,105
2016-05-23T14:22:31.245Z,105
2016-05-23T14:23:31.264Z,110
2016-05-23T14:24:31.000Z,105